Time;durP1;ratioP1;P1;durP2;ratioP2;P2;SDS_P1;SDS_P2;PMS_P1;PMS_P2;Temp;Humidity;BMP_temperature;BMP_pressure;BME280_temperature;BME280_humidity;BME280_pressure;Samples;Min_cycle;Max_cycle;Signal;HPM_P1;HPM_P2
2021/04/19 00:00:36;;;;;;;4.68;2.13;;;8.90;64.40;;;;;;2070510;28;20041;-84
2021/04/19 00:01:37;;;;;;;4.70;2.10;;;8.90;64.50;;;;;;2070678;28;20503;-84
2021/04/19 00:02:39;;;;;;;5.28;2.50;;;8.90;64.60;;;;;;2078258;28;20026;-84
2021/04/19 00:03:39;;;;;;;3.97;2.30;;;8.80;64.70;;;;;;2078417;28;20029;-84
2021/04/19 00:04:40;;;;;;;4.15;2.05;;;8.80;64.70;;;;;;2054394;28;20378;-84
2021/04/19 00:05:40;;;;;;;4.38;2.30;;;8.80;64.80;;;;;;2070348;28;20026;-84
2021/04/19 00:06:42;;;;;;;6.10;2.10;;;8.80;64.90;;;;;;2071494;28;20125;-83
2021/04/19 00:07:43;;;;;;;3.90;2.40;;;8.70;64.90;;;;;;2067436;28;20030;-84
2021/04/19 00:08:44;;;;;;;3.70;2.15;;;8.70;65.00;;;;;;2080654;28;20101;-83
2021/04/19 00:09:45;;;;;;;6.00;2.22;;;8.70;65.10;;;;;;2069998;28;20080;-83
2021/04/19 00:10:46;;;;;;;5.32;2.60;;;8.60;65.20;;;;;;2062305;28;20030;-84
2021/04/19 00:11:46;;;;;;;4.90;2.30;;;8.60;65.30;;;;;;2061115;28;20046;-84
2021/04/19 00:12:48;;;;;;;4.18;2.33;;;8.60;65.60;;;;;;2079734;28;20030;-84
2021/04/19 00:13:48;;;;;;;4.72;2.35;;;8.60;65.60;;;;;;2086442;28;20067;-84
2021/04/19 00:14:49;;;;;;;4.38;2.20;;;8.50;65.60;;;;;;2082040;28;20473;-83
2021/04/19 00:15:51;;;;;;;5.25;2.58;;;8.50;65.70;;;;;;2078650;28;20041;-83
2021/04/19 00:16:52;;;;;;;4.82;2.55;;;8.50;65.90;;;;;;2067862;28;20065;-84
2021/04/19 00:17:53;;;;;;;4.25;2.65;;;8.40;65.90;;;;;;2076171;28;20034;-84
2021/04/19 00:18:53;;;;;;;3.63;2.17;;;8.40;66.00;;;;;;2067028;28;20042;-84
2021/04/19 00:19:54;;;;;;;4.80;2.70;;;8.40;66.20;;;;;;2063113;28;20476;-84
2021/04/19 00:20:54;;;;;;;6.28;2.70;;;8.30;66.30;;;;;;2071477;28;20041;-85
2021/04/19 00:21:55;;;;;;;6.35;2.80;;;8.30;66.30;;;;;;2069022;28;20124;-84
2021/04/19 00:22:56;;;;;;;4.82;2.60;;;8.30;66.60;;;;;;2068487;28;20026;-84
2021/04/19 00:23:57;;;;;;;5.18;2.75;;;8.30;66.60;;;;;;2076882;28;20093;-84
2021/04/19 00:24:58;;;;;;;5.68;2.55;;;8.30;66.60;;;;;;2072789;28;20125;-84
2021/04/19 00:25:59;;;;;;;6.38;2.55;;;8.20;66.60;;;;;;2077647;28;21624;-84
2021/04/19 00:26:59;;;;;;;5.15;2.60;;;8.30;66.70;;;;;;2083279;28;20400;-84
2021/04/19 00:28:00;;;;;;;4.75;2.63;;;8.20;66.80;;;;;;2077161;28;20029;-84
2021/04/19 00:29:01;;;;;;;5.00;2.90;;;8.20;66.90;;;;;;2064258;28;20038;-84
2021/04/19 00:30:04;;;;;;;6.57;2.90;;;8.20;67.50;;;;;;2063658;28;20485;-84
2021/04/19 00:31:07;;;;;;;5.00;2.58;;;8.10;67.00;;;;;;2063615;28;20461;-84
2021/04/19 00:32:08;;;;;;;6.90;2.95;;;8.10;67.10;;;;;;2079785;28;20391;-83
2021/04/19 00:33:09;;;;;;;5.93;2.78;;;8.10;67.30;;;;;;2080279;28;20116;-84
2021/04/19 00:34:09;;;;;;;4.57;2.67;;;8.10;67.70;;;;;;2080043;28;20021;-84
2021/04/19 00:35:11;;;;;;;4.82;2.50;;;8.00;67.40;;;;;;2068949;28;20033;-85
2021/04/19 00:36:11;;;;;;;5.03;2.67;;;8.00;67.50;;;;;;2064723;28;20031;-85
2021/04/19 00:37:12;;;;;;;5.80;2.63;;;8.00;67.50;;;;;;2064069;28;20023;-84
2021/04/19 00:38:13;;;;;;;4.45;2.78;;;8.00;67.60;;;;;;2069758;28;20117;-85
2021/04/19 00:39:13;;;;;;;5.45;2.83;;;8.00;67.70;;;;;;2082298;28;20033;-85
2021/04/19 00:40:17;;;;;;;5.38;2.53;;;7.90;67.60;;;;;;2079741;28;20053;-85
2021/04/19 00:41:19;;;;;;;5.25;2.35;;;7.90;67.80;;;;;;2081446;28;20034;-84
2021/04/19 00:42:21;;;;;;;6.43;2.53;;;8.00;67.80;;;;;;2080170;28;20025;-84
2021/04/19 00:43:22;;;;;;;5.22;2.50;;;7.90;67.80;;;;;;2064788;28;20038;-84
2021/04/19 00:44:24;;;;;;;5.10;2.58;;;7.90;67.80;;;;;;2078788;28;20104;-84
2021/04/19 00:45:24;;;;;;;5.18;2.42;;;7.90;67.90;;;;;;2072014;28;20446;-84
2021/04/19 00:46:25;;;;;;;4.93;2.47;;;7.90;67.90;;;;;;2064611;28;20092;-84
2021/04/19 00:47:26;;;;;;;4.45;2.28;;;7.90;67.90;;;;;;2073188;28;20110;-84
2021/04/19 00:48:26;;;;;;;6.63;2.47;;;7.90;68.00;;;;;;2082521;28;20501;-84
2021/04/19 00:49:27;;;;;;;5.57;2.40;;;7.90;68.00;;;;;;2085783;28;20563;-84
2021/04/19 00:50:31;;;;;;;5.10;2.33;;;7.90;68.00;;;;;;2068351;28;20034;-83
2021/04/19 00:51:32;;;;;;;5.15;2.40;;;7.90;68.00;;;;;;2068219;28;20033;-83
2021/04/19 00:52:33;;;;;;;4.15;2.25;;;8.00;68.00;;;;;;2082501;28;20021;-84
2021/04/19 00:53:36;;;;;;;5.43;2.40;;;8.00;68.10;;;;;;2076545;28;20103;-83
2021/04/19 00:54:38;;;;;;;5.25;2.55;;;7.90;68.10;;;;;;2077164;28;20033;-83
2021/04/19 00:55:39;;;;;;;4.18;2.55;;;8.00;68.20;;;;;;2082204;28;20025;-83
2021/04/19 00:56:41;;;;;;;4.00;2.45;;;7.90;68.10;;;;;;2087910;28;20495;-83
2021/04/19 00:57:42;;;;;;;8.68;2.67;;;7.90;68.20;;;;;;2071980;28;20045;-82
2021/04/19 00:58:45;;;;;;;4.05;2.50;;;7.90;68.30;;;;;;2064609;28;20494;-82
2021/04/19 00:59:46;;;;;;;5.25;2.40;;;7.90;68.30;;;;;;2068821;28;20404;-83
2021/04/19 01:00:46;;;;;;;4.85;2.53;;;7.90;68.40;;;;;;2073866;28;20033;-83
2021/04/19 01:01:49;;;;;;;4.85;2.55;;;7.90;68.40;;;;;;2081433;28;20511;-83
2021/04/19 01:02:50;;;;;;;5.90;2.50;;;7.90;68.50;;;;;;2078369;28;20040;-84
2021/04/19 01:03:51;;;;;;;5.82;2.80;;;7.90;68.50;;;;;;2079839;28;20028;-84
2021/04/19 01:04:51;;;;;;;4.60;2.45;;;7.90;68.50;;;;;;2062936;28;20419;-83
2021/04/19 01:05:52;;;;;;;5.00;2.58;;;7.90;68.60;;;;;;2056451;28;20067;-83
2021/04/19 01:06:55;;;;;;;5.80;2.63;;;7.90;68.60;;;;;;2065983;28;20062;-83
2021/04/19 01:07:56;;;;;;;5.45;2.72;;;7.90;68.60;;;;;;2071492;28;20347;-84
2021/04/19 01:08:57;;;;;;;5.90;2.60;;;7.90;68.70;;;;;;2074333;28;20037;-83
2021/04/19 01:09:58;;;;;;;4.50;2.60;;;7.90;68.70;;;;;;2070073;28;20034;-83
2021/04/19 01:10:58;;;;;;;5.00;2.65;;;7.90;68.70;;;;;;2075071;28;20080;-83
2021/04/19 01:11:59;;;;;;;5.82;2.33;;;7.90;68.70;;;;;;2071385;28;20108;-83
2021/04/19 01:13:00;;;;;;;5.18;2.53;;;7.90;68.70;;;;;;2056584;28;20037;-83
2021/04/19 01:14:00;;;;;;;4.55;2.30;;;7.90;68.70;;;;;;2075786;28;20053;-83
2021/04/19 01:15:02;;;;;;;4.50;2.47;;;8.00;68.70;;;;;;2080702;28;20159;-83
2021/04/19 01:16:03;;;;;;;5.60;2.72;;;8.00;68.70;;;;;;2075024;28;20050;-83
2021/04/19 01:17:04;;;;;;;5.63;2.85;;;8.00;68.80;;;;;;2065129;28;20030;-83
2021/04/19 01:18:05;;;;;;;5.13;2.65;;;7.90;68.70;;;;;;2071492;28;20065;-83
2021/04/19 01:19:06;;;;;;;5.53;2.60;;;8.00;68.80;;;;;;2081907;28;20475;-83
2021/04/19 01:20:09;;;;;;;4.53;2.35;;;8.00;68.80;;;;;;2084792;28;20032;-83
2021/04/19 01:21:09;;;;;;;4.40;2.50;;;8.00;68.80;;;;;;2070451;28;20503;-83
2021/04/19 01:22:10;;;;;;;4.07;2.42;;;8.00;68.80;;;;;;2061854;28;20031;-83
2021/04/19 01:23:11;;;;;;;4.10;2.33;;;8.00;68.90;;;;;;2072206;28;20037;-83
2021/04/19 01:24:12;;;;;;;3.88;2.20;;;8.00;68.90;;;;;;2072338;28;20030;-83
2021/04/19 01:25:17;;;;;;;4.22;2.42;;;8.00;68.90;;;;;;2069449;28;20180;-83
2021/04/19 01:26:17;;;;;;;4.57;2.78;;;8.00;69.00;;;;;;2076908;28;20037;-83
2021/04/19 01:27:18;;;;;;;5.00;2.40;;;8.00;69.60;;;;;;2077517;28;20582;-84
2021/04/19 01:28:20;;;;;;;4.60;2.30;;;8.00;69.60;;;;;;2078970;28;20053;-82
2021/04/19 01:29:21;;;;;;;4.32;2.45;;;8.00;69.00;;;;;;2080482;28;20038;-84
2021/04/19 01:30:24;;;;;;;5.47;2.47;;;8.00;69.00;;;;;;2087733;28;20052;-83
2021/04/19 01:31:25;;;;;;;4.47;2.30;;;8.00;69.10;;;;;;2089468;28;20032;-83
2021/04/19 01:32:26;;;;;;;5.38;2.63;;;8.00;69.10;;;;;;2080625;28;20033;-83
2021/04/19 01:33:27;;;;;;;4.65;2.53;;;8.00;69.10;;;;;;2063674;28;20081;-83
2021/04/19 01:34:27;;;;;;;4.40;2.40;;;8.10;69.20;;;;;;2070215;28;20037;-83
2021/04/19 01:35:29;;;;;;;4.63;2.60;;;8.10;69.20;;;;;;2070671;28;20388;-83
2021/04/19 01:36:30;;;;;;;5.15;2.50;;;8.00;69.20;;;;;;2071638;28;20029;-83
2021/04/19 01:37:30;;;;;;;4.97;2.60;;;8.00;69.20;;;;;;2074855;28;20053;-83
2021/04/19 01:38:31;;;;;;;4.18;2.22;;;8.00;69.30;;;;;;2061011;28;20139;-84
2021/04/19 01:39:32;;;;;;;5.22;2.75;;;8.00;69.30;;;;;;2058556;28;20034;-83
2021/04/19 01:40:32;;;;;;;4.22;2.55;;;8.00;69.40;;;;;;2071733;28;20101;-84
2021/04/19 01:41:33;;;;;;;4.63;2.50;;;8.00;69.40;;;;;;2064416;28;20481;-84
2021/04/19 01:42:33;;;;;;;4.82;2.63;;;8.00;69.60;;;;;;2066383;28;20112;-84
2021/04/19 01:43:34;;;;;;;4.80;2.47;;;8.00;69.60;;;;;;2063976;28;20499;-84
2021/04/19 01:44:35;;;;;;;3.72;2.50;;;7.90;69.60;;;;;;2072220;28;20584;-84
2021/04/19 01:45:36;;;;;;;4.47;2.75;;;8.00;69.70;;;;;;2079971;28;20021;-84
2021/04/19 01:46:37;;;;;;;4.70;2.72;;;8.00;69.80;;;;;;2062615;28;20350;-82
2021/04/19 01:47:38;;;;;;;5.85;2.92;;;7.90;69.70;;;;;;2064396;28;20026;-84
2021/04/19 01:48:38;;;;;;;5.30;2.72;;;7.90;69.80;;;;;;2061828;28;20118;-84
2021/04/19 01:49:39;;;;;;;4.90;2.85;;;7.90;69.90;;;;;;2062133;28;20601;-83
2021/04/19 01:50:39;;;;;;;5.47;3.00;;;7.90;70.00;;;;;;2078716;28;20030;-84
2021/04/19 01:51:40;;;;;;;4.93;2.75;;;7.90;70.10;;;;;;2075947;28;20559;-84
2021/04/19 01:52:41;;;;;;;5.30;2.92;;;7.90;70.10;;;;;;2070060;28;20459;-83
2021/04/19 01:53:42;;;;;;;6.13;3.13;;;7.80;70.10;;;;;;2074424;28;20034;-84
2021/04/19 01:54:43;;;;;;;5.13;2.97;;;7.80;70.20;;;;;;2082063;28;20183;-84
2021/04/19 01:55:44;;;;;;;4.90;2.80;;;7.80;70.20;;;;;;2086092;28;20047;-84
2021/04/19 01:56:45;;;;;;;5.40;3.05;;;7.80;70.30;;;;;;2088798;28;20128;-84
2021/04/19 01:57:50;;;;;;;5.05;2.90;;;7.80;70.30;;;;;;2072198;28;20050;-83
2021/04/19 01:58:50;;;;;;;4.80;2.85;;;7.70;70.40;;;;;;2079140;28;20072;-84
2021/04/19 01:59:52;;;;;;;5.47;3.00;;;7.80;70.40;;;;;;2075516;28;20085;-83
2021/04/19 02:01:00;;;;;;;5.65;3.33;;;7.70;70.50;;;;;;2072168;28;20034;-84
2021/04/19 02:02:09;;;;;;;6.18;3.38;;;7.80;70.60;;;;;;2070306;28;20037;-84
2021/04/19 02:03:48;;;;;;;5.97;3.25;;;7.70;70.60;;;;;;2082450;28;20026;-84
2021/04/19 02:05:10;;;;;;;5.40;3.17;;;7.70;70.60;;;;;;2084680;28;20046;-84
2021/04/19 02:06:19;;;;;;;5.75;3.28;;;7.60;70.60;;;;;;2085742;28;20491;-84
2021/04/19 02:07:33;;;;;;;4.90;3.10;;;7.60;70.80;;;;;;2074338;28;20546;-84
2021/04/19 02:08:57;;;;;;;6.45;3.58;;;7.50;70.90;;;;;;2077771;28;20050;-84
2021/04/19 02:10:07;;;;;;;5.90;3.50;;;7.50;71.00;;;;;;2081218;28;20365;-83
2021/04/19 02:11:23;;;;;;;4.90;2.97;;;7.50;71.00;;;;;;2086138;28;20021;-82
2021/04/19 02:12:55;;;;;;;6.57;3.30;;;7.50;71.10;;;;;;2086618;28;20025;-84
2021/04/19 02:14:19;;;;;;;5.93;3.17;;;7.40;71.10;;;;;;2088389;28;20087;-83
2021/04/19 02:15:50;;;;;;;5.60;3.30;;;7.40;71.10;;;;;;2084152;28;20017;-83
2021/04/19 02:17:02;;;;;;;5.53;3.03;;;7.40;71.20;;;;;;2072819;28;20045;-84
2021/04/19 02:18:18;;;;;;;5.60;3.03;;;7.40;71.20;;;;;;2077741;28;20538;-83
2021/04/19 02:19:37;;;;;;;5.60;3.22;;;7.30;71.30;;;;;;2080764;28;20047;-83
2021/04/19 02:20:54;;;;;;;5.57;2.83;;;7.30;71.40;;;;;;2086566;28;20032;-84
2021/04/19 02:22:01;;;;;;;5.20;2.58;;;7.30;71.50;;;;;;2085675;28;20028;-84
2021/04/19 02:23:08;;;;;;;5.57;3.17;;;7.30;71.50;;;;;;2083517;28;20036;-83
2021/04/19 02:24:13;;;;;;;5.65;2.95;;;7.30;71.60;;;;;;2082456;28;20447;-83
2021/04/19 02:25:37;;;;;;;7.53;3.03;;;7.30;71.70;;;;;;2083403;28;20033;-83
2021/04/19 02:27:00;;;;;;;6.80;3.40;;;7.30;71.80;;;;;;2079866;28;20042;-84
2021/04/19 02:28:05;;;;;;;5.00;2.90;;;7.30;71.80;;;;;;2085843;28;20028;-84
2021/04/19 02:29:16;;;;;;;5.45;2.78;;;7.20;71.70;;;;;;2086631;28;20040;-84
2021/04/19 02:30:18;;;;;;;7.40;2.92;;;7.20;71.80;;;;;;2088055;28;20472;-84
2021/04/19 02:31:22;;;;;;;4.65;2.75;;;7.20;71.80;;;;;;2071414;28;20504;-83
2021/04/19 02:32:28;;;;;;;6.25;3.10;;;7.20;72.00;;;;;;2072472;28;20104;-84
2021/04/19 02:33:36;;;;;;;5.03;2.88;;;7.20;72.20;;;;;;2083167;28;20503;-84
2021/04/19 02:34:38;;;;;;;5.50;3.05;;;7.20;72.30;;;;;;2085208;28;20459;-83
2021/04/19 02:35:43;;;;;;;5.60;2.90;;;7.20;72.30;;;;;;2083285;28;20100;-83
2021/04/19 02:36:47;;;;;;;5.05;2.80;;;7.20;72.30;;;;;;2090296;28;20031;-83
2021/04/19 02:37:50;;;;;;;7.15;3.60;;;7.20;72.40;;;;;;2092787;28;20056;-83
2021/04/19 02:38:53;;;;;;;5.00;2.97;;;7.20;72.40;;;;;;2092455;28;20021;-82
2021/04/19 02:39:55;;;;;;;6.40;3.05;;;7.20;72.50;;;;;;2092243;28;20041;-83
2021/04/19 02:41:00;;;;;;;5.82;3.45;;;7.20;72.50;;;;;;2089379;28;20036;-83
2021/04/19 02:42:01;;;;;;;5.28;3.05;;;7.20;72.60;;;;;;2085111;28;20032;-83
2021/04/19 02:43:02;;;;;;;5.32;2.90;;;7.20;72.60;;;;;;2078943;28;20037;-83
2021/04/19 02:44:07;;;;;;;5.85;3.03;;;7.20;72.70;;;;;;2063600;28;20036;-83
2021/04/19 02:45:09;;;;;;;5.70;3.05;;;7.20;72.70;;;;;;2072060;28;20057;-83
2021/04/19 02:46:11;;;;;;;5.03;2.90;;;7.20;72.80;;;;;;2085485;28;20029;-83
2021/04/19 02:47:14;;;;;;;4.80;2.75;;;7.20;72.80;;;;;;2087058;28;20041;-83
2021/04/19 02:48:15;;;;;;;6.35;3.40;;;7.20;72.90;;;;;;2092722;28;20099;-83
2021/04/19 02:49:19;;;;;;;6.43;3.17;;;7.10;72.90;;;;;;2089420;28;20036;-84
2021/04/19 02:50:22;;;;;;;6.13;3.42;;;7.20;73.00;;;;;;2081058;28;20034;-83
2021/04/19 02:51:23;;;;;;;5.47;3.22;;;7.10;73.00;;;;;;2086637;28;20021;-83
2021/04/19 02:52:25;;;;;;;6.35;3.10;;;7.10;73.10;;;;;;2080036;28;20067;-83
2021/04/19 02:53:27;;;;;;;5.53;3.22;;;7.10;73.10;;;;;;2070519;28;20070;-84
2021/04/19 02:54:30;;;;;;;5.07;2.95;;;7.10;73.80;;;;;;2082673;28;20575;-83
2021/04/19 02:55:32;;;;;;;6.93;3.22;;;7.10;73.30;;;;;;2086570;28;20029;-83
2021/04/19 02:56:34;;;;;;;6.22;3.00;;;7.10;73.30;;;;;;2079983;28;20092;-83
2021/04/19 02:57:43;;;;;;;6.60;3.55;;;7.10;73.30;;;;;;2082889;28;20083;-83
2021/04/19 02:58:47;;;;;;;6.07;3.33;;;7.10;73.40;;;;;;2085069;28;20492;-83
2021/04/19 02:59:51;;;;;;;5.25;2.92;;;7.10;73.40;;;;;;2083117;28;20052;-83
2021/04/19 03:00:52;;;;;;;5.15;3.28;;;7.00;73.40;;;;;;2080264;28;20036;-83
2021/04/19 03:02:00;;;;;;;6.72;3.40;;;7.00;73.50;;;;;;2076414;28;20418;-83
2021/04/19 03:03:07;;;;;;;6.32;3.08;;;7.00;73.60;;;;;;2089356;28;20029;-83
2021/04/19 03:04:12;;;;;;;7.03;3.60;;;7.00;73.60;;;;;;2089047;28;20479;-83
2021/04/19 03:05:15;;;;;;;5.80;3.60;;;7.00;73.60;;;;;;2078974;28;20121;-84
2021/04/19 03:06:18;;;;;;;6.18;3.13;;;7.00;73.70;;;;;;2071697;28;20052;-83
2021/04/19 03:07:21;;;;;;;5.82;3.22;;;7.00;74.40;;;;;;2069980;28;20504;-83
2021/04/19 03:08:26;;;;;;;6.20;3.00;;;7.00;74.50;;;;;;2089042;28;20029;-83
2021/04/19 03:09:27;;;;;;;6.20;3.42;;;7.00;73.90;;;;;;2093690;28;20032;-84
2021/04/19 03:10:33;;;;;;;5.40;3.20;;;7.00;73.90;;;;;;2080816;28;20029;-84
2021/04/19 03:11:42;;;;;;;5.78;3.20;;;7.00;73.90;;;;;;2083963;28;20044;-83
2021/04/19 03:12:49;;;;;;;6.05;3.30;;;7.00;73.90;;;;;;2087856;28;20028;-84
2021/04/19 03:13:52;;;;;;;5.82;3.10;;;7.00;73.90;;;;;;2082280;28;20068;-83
2021/04/19 03:15:07;;;;;;;5.93;3.28;;;7.00;73.90;;;;;;2072836;28;20103;-83
2021/04/19 03:16:09;;;;;;;5.93;3.55;;;7.00;74.00;;;;;;2076344;28;20058;-83
2021/04/19 03:17:13;;;;;;;6.20;3.50;;;6.90;73.90;;;;;;2080285;28;20049;-83
2021/04/19 03:18:17;;;;;;;6.00;3.30;;;6.90;74.00;;;;;;2075229;28;20077;-84
2021/04/19 03:19:25;;;;;;;5.90;3.50;;;6.90;74.10;;;;;;2077156;28;20037;-84
2021/04/19 03:20:29;;;;;;;6.05;3.50;;;6.90;74.20;;;;;;2083966;28;20116;-83
2021/04/19 03:21:34;;;;;;;5.25;3.40;;;6.80;74.30;;;;;;2089585;28;20036;-83
2021/04/19 03:22:37;;;;;;;8.02;3.38;;;6.80;74.30;;;;;;2072911;28;20408;-84
2021/04/19 03:23:43;;;;;;;6.20;3.60;;;6.80;74.40;;;;;;2072844;28;20109;-83
2021/04/19 03:24:45;;;;;;;6.30;3.58;;;6.80;74.50;;;;;;2073495;28;20058;-84
2021/04/19 03:25:46;;;;;;;6.60;3.67;;;6.80;74.50;;;;;;2070005;28;20057;-84
2021/04/19 03:26:49;;;;;;;6.93;3.67;;;6.80;74.60;;;;;;2064724;28;20512;-82
2021/04/19 03:27:52;;;;;;;6.60;3.50;;;6.70;74.70;;;;;;2082574;28;20525;-83
2021/04/19 03:28:54;;;;;;;6.25;3.83;;;6.70;74.80;;;;;;2085297;28;20021;-83
2021/04/19 03:29:57;;;;;;;6.40;3.78;;;6.70;74.90;;;;;;2077789;28;20021;-84
2021/04/19 03:30:59;;;;;;;6.57;3.60;;;6.70;75.00;;;;;;2069494;28;20036;-83
2021/04/19 03:32:06;;;;;;;5.93;3.58;;;6.60;75.00;;;;;;2086563;28;20020;-83
2021/04/19 03:33:09;;;;;;;6.18;3.75;;;6.70;75.10;;;;;;2088603;28;20133;-84
2021/04/19 03:34:26;;;;;;;6.82;4.00;;;6.60;75.00;;;;;;2085762;28;20717;-83
2021/04/19 03:35:38;;;;;;;6.85;3.78;;;6.60;75.10;;;;;;2079105;28;20030;-83
2021/04/19 03:36:41;;;;;;;7.10;3.72;;;6.60;75.10;;;;;;2087821;28;20013;-84
2021/04/19 03:37:45;;;;;;;6.60;3.58;;;6.60;75.10;;;;;;2078742;28;21840;-84
2021/04/19 03:38:48;;;;;;;6.00;3.45;;;6.60;75.20;;;;;;2079097;28;20021;-83
2021/04/19 03:39:55;;;;;;;6.65;3.70;;;6.60;75.20;;;;;;2077324;28;20033;-83
2021/04/19 03:40:57;;;;;;;6.93;3.75;;;6.60;75.20;;;;;;2072587;28;20080;-83
2021/04/19 03:41:59;;;;;;;6.25;3.58;;;6.60;75.10;;;;;;2075989;28;20028;-83
2021/04/19 03:43:06;;;;;;;6.55;4.05;;;6.60;75.10;;;;;;2064583;28;20034;-84
2021/04/19 03:44:11;;;;;;;5.57;3.30;;;6.60;75.20;;;;;;2079502;28;20028;-83
2021/04/19 03:45:13;;;;;;;7.07;3.72;;;6.60;75.20;;;;;;2087326;28;20491;-83
2021/04/19 03:46:16;;;;;;;6.95;3.97;;;6.70;75.30;;;;;;2074059;28;20034;-83
2021/04/19 03:47:20;;;;;;;6.90;3.55;;;6.60;75.30;;;;;;2066797;28;20029;-83
2021/04/19 03:48:22;;;;;;;7.00;4.10;;;6.60;75.30;;;;;;2076322;28;20066;-84
2021/04/19 03:49:46;;;;;;;5.75;3.67;;;6.60;75.40;;;;;;2084635;28;20029;-84
2021/04/19 03:50:50;;;;;;;7.00;4.20;;;6.60;75.40;;;;;;2077133;28;20413;-84
2021/04/19 03:51:55;;;;;;;7.50;4.03;;;6.60;75.40;;;;;;2079659;28;20079;-84
2021/04/19 03:52:59;;;;;;;5.97;3.78;;;6.60;75.40;;;;;;2080652;28;20083;-84
2021/04/19 03:54:01;;;;;;;6.68;3.97;;;6.60;75.40;;;;;;2080625;28;20017;-83
2021/04/19 03:55:07;;;;;;;7.07;3.78;;;6.70;75.50;;;;;;2070812;28;20440;-83
2021/04/19 03:56:10;;;;;;;6.78;3.78;;;6.60;75.40;;;;;;2073535;28;20041;-84
2021/04/19 03:57:18;;;;;;;7.10;4.00;;;6.60;75.40;;;;;;2078801;28;20502;-83
2021/04/19 03:58:21;;;;;;;6.53;3.95;;;6.60;75.60;;;;;;2089308;28;20024;-84
2021/04/19 03:59:23;;;;;;;4.97;3.47;;;6.60;75.60;;;;;;2078264;28;20029;-84
2021/04/19 04:00:25;;;;;;;6.85;4.28;;;6.60;75.60;;;;;;2079063;28;20034;-84
2021/04/19 04:01:26;;;;;;;7.30;3.97;;;6.60;75.60;;;;;;2083872;28;20030;-84
2021/04/19 04:02:29;;;;;;;6.55;3.92;;;6.60;75.70;;;;;;2080708;28;20810;-84
2021/04/19 04:03:32;;;;;;;7.88;4.65;;;6.60;75.70;;;;;;2072213;28;20365;-83
2021/04/19 04:04:34;;;;;;;8.15;4.15;;;6.60;75.70;;;;;;2072864;28;20030;-83
2021/04/19 04:05:35;;;;;;;6.07;4.00;;;6.60;75.80;;;;;;2067146;28;20882;-84
2021/04/19 04:06:37;;;;;;;8.25;4.60;;;6.60;75.80;;;;;;2070777;28;20034;-83
2021/04/19 04:07:39;;;;;;;7.05;4.28;;;6.70;75.80;;;;;;2081093;28;20029;-83
2021/04/19 04:08:41;;;;;;;7.75;4.35;;;6.70;75.80;;;;;;2079937;28;20072;-83
2021/04/19 04:09:43;;;;;;;7.78;4.20;;;6.60;75.80;;;;;;2070178;28;20030;-84
2021/04/19 04:10:45;;;;;;;6.68;3.72;;;6.70;75.80;;;;;;2062734;28;20034;-84
2021/04/19 04:11:46;;;;;;;8.20;4.82;;;6.60;75.90;;;;;;2079568;28;20028;-84
2021/04/19 04:12:48;;;;;;;8.50;4.35;;;6.60;76.00;;;;;;2079022;28;20514;-84
2021/04/19 04:13:49;;;;;;;8.25;5.07;;;6.60;76.00;;;;;;2075534;28;20068;-84
2021/04/19 04:14:57;;;;;;;6.95;4.47;;;6.60;76.70;;;;;;2089826;28;20079;-84
2021/04/19 04:15:59;;;;;;;7.53;4.15;;;6.60;76.20;;;;;;2077954;28;20105;-84
2021/04/19 04:17:00;;;;;;;7.95;4.70;;;6.60;76.10;;;;;;2084480;28;20017;-84
2021/04/19 04:18:00;;;;;;;8.27;4.40;;;6.60;76.10;;;;;;2078820;28;20029;-83
2021/04/19 04:19:01;;;;;;;8.20;4.20;;;6.60;76.10;;;;;;2073276;28;20073;-83
2021/04/19 04:20:04;;;;;;;8.90;4.35;;;6.60;76.20;;;;;;2071040;28;20042;-83
2021/04/19 04:21:05;;;;;;;8.85;4.68;;;6.60;76.20;;;;;;2078636;28;20424;-83
2021/04/19 04:22:06;;;;;;;7.03;4.47;;;6.70;76.20;;;;;;2085272;28;20034;-84
2021/04/19 04:23:07;;;;;;;7.32;4.22;;;6.70;76.10;;;;;;2071017;28;20033;-84
2021/04/19 04:24:08;;;;;;;7.03;4.55;;;6.70;76.20;;;;;;2064788;28;20070;-84
2021/04/19 04:25:09;;;;;;;7.47;4.80;;;6.70;76.20;;;;;;2080484;28;20049;-84
2021/04/19 04:26:10;;;;;;;6.82;4.60;;;6.60;76.10;;;;;;2086663;28;20044;-82
2021/04/19 04:27:12;;;;;;;7.43;4.50;;;6.70;76.20;;;;;;2069265;28;20372;-81
2021/04/19 04:28:13;;;;;;;9.05;4.78;;;6.70;76.30;;;;;;2070902;28;20025;-82
2021/04/19 04:29:14;;;;;;;8.80;4.63;;;6.70;76.40;;;;;;2067401;28;20031;-83
2021/04/19 04:30:15;;;;;;;7.05;4.30;;;6.70;76.30;;;;;;2069693;28;20050;-83
2021/04/19 04:31:16;;;;;;;8.13;4.68;;;6.70;76.30;;;;;;2081545;28;20033;-83
2021/04/19 04:32:16;;;;;;;7.90;4.80;;;6.70;76.40;;;;;;2078788;28;20026;-83
2021/04/19 04:33:17;;;;;;;8.32;5.10;;;6.70;76.40;;;;;;2074303;28;20430;-84
2021/04/19 04:34:17;;;;;;;7.03;4.47;;;6.70;76.40;;;;;;2081223;28;20387;-83
2021/04/19 04:35:18;;;;;;;8.15;4.88;;;6.60;76.40;;;;;;2081493;28;20053;-83
2021/04/19 04:36:19;;;;;;;8.05;5.05;;;6.70;76.50;;;;;;2065732;28;20056;-83
2021/04/19 04:37:19;;;;;;;8.95;5.03;;;6.70;76.60;;;;;;2064292;28;20033;-83
2021/04/19 04:38:20;;;;;;;7.90;4.80;;;6.70;76.60;;;;;;2079517;28;20040;-83
2021/04/19 04:39:21;;;;;;;8.05;5.07;;;6.70;76.60;;;;;;2066670;28;20048;-83
2021/04/19 04:40:21;;;;;;;8.25;4.90;;;6.80;76.60;;;;;;2071380;28;20061;-83
2021/04/19 04:41:22;;;;;;;7.35;4.88;;;6.80;76.60;;;;;;2085693;28;20071;-83
2021/04/19 04:42:24;;;;;;;7.50;4.85;;;6.80;77.10;;;;;;2070161;28;20029;-83
2021/04/19 04:43:27;;;;;;;8.60;5.00;;;6.80;76.50;;;;;;2073058;28;20030;-83
2021/04/19 04:44:33;;;;;;;7.93;4.97;;;6.80;76.40;;;;;;2067081;28;20452;-83
2021/04/19 04:45:35;;;;;;;7.05;4.57;;;6.90;76.50;;;;;;2070639;28;20117;-83
2021/04/19 04:46:57;;;;;;;7.97;5.00;;;6.90;76.40;;;;;;2077266;28;20032;-83
2021/04/19 04:48:07;;;;;;;7.38;4.38;;;6.90;76.30;;;;;;2077591;28;20030;-83
2021/04/19 04:49:15;;;;;;;7.38;4.20;;;6.90;76.10;;;;;;2089317;28;20025;-83
2021/04/19 04:50:23;;;;;;;7.88;4.70;;;7.00;76.10;;;;;;2081373;28;20030;-83
2021/04/19 04:51:27;;;;;;;7.10;4.60;;;7.00;76.00;;;;;;2086948;28;20029;-83
2021/04/19 04:52:53;;;;;;;7.55;4.57;;;7.00;76.00;;;;;;2092042;28;20123;-82
2021/04/19 04:53:55;;;;;;;7.50;4.53;;;7.10;76.10;;;;;;2086835;28;20021;-83
2021/04/19 04:54:57;;;;;;;7.90;4.70;;;7.00;75.90;;;;;;2071466;28;20061;-83
2021/04/19 04:55:59;;;;;;;7.60;4.57;;;7.10;75.90;;;;;;2063455;28;20346;-83
2021/04/19 04:57:01;;;;;;;8.30;5.00;;;7.10;76.00;;;;;;2063305;28;20030;-83
2021/04/19 04:58:04;;;;;;;6.97;4.88;;;7.00;76.00;;;;;;2079968;28;20109;-84
2021/04/19 04:59:06;;;;;;;8.10;4.72;;;7.00;76.20;;;;;;2080074;28;20022;-83
2021/04/19 05:00:10;;;;;;;9.05;5.03;;;7.00;76.30;;;;;;2063032;28;20067;-83
2021/04/19 05:01:12;;;;;;;7.90;5.10;;;7.00;76.50;;;;;;2073067;28;20022;-83
2021/04/19 05:02:14;;;;;;;8.98;5.25;;;7.00;76.60;;;;;;2079438;28;20021;-83
2021/04/19 05:03:15;;;;;;;7.80;4.80;;;7.00;76.60;;;;;;2069727;28;20423;-83
2021/04/19 05:04:16;;;;;;;7.47;5.25;;;7.00;76.70;;;;;;2064543;28;20042;-82
2021/04/19 05:05:17;;;;;;;8.25;4.95;;;7.00;76.70;;;;;;2071803;28;20061;-83
2021/04/19 05:06:19;;;;;;;8.30;5.10;;;7.00;76.80;;;;;;2079665;28;20112;-83
2021/04/19 05:07:20;;;;;;;8.75;5.30;;;7.00;76.80;;;;;;2088006;28;20029;-83
2021/04/19 05:08:22;;;;;;;8.85;5.25;;;7.00;76.90;;;;;;2086185;28;20578;-83
2021/04/19 05:09:22;;;;;;;8.70;5.20;;;7.10;77.00;;;;;;2078418;28;20052;-83
2021/04/19 05:10:23;;;;;;;8.05;5.05;;;7.00;76.90;;;;;;2076017;28;20026;-83
2021/04/19 05:11:24;;;;;;;9.90;5.28;;;7.10;77.00;;;;;;2087845;28;20545;-83
2021/04/19 05:12:25;;;;;;;8.13;5.05;;;7.00;76.90;;;;;;2082080;28;20144;-82
2021/04/19 05:13:25;;;;;;;7.95;5.47;;;7.00;77.00;;;;;;2077565;28;20150;-83
2021/04/19 05:14:26;;;;;;;10.00;5.20;;;7.00;77.10;;;;;;2067795;28;20049;-82
2021/04/19 05:15:27;;;;;;;7.93;4.68;;;7.10;77.20;;;;;;2062855;28;20497;-83
2021/04/19 05:16:29;;;;;;;9.45;5.28;;;7.10;77.30;;;;;;2079859;28;20120;-82
2021/04/19 05:17:30;;;;;;;9.52;5.15;;;7.00;77.30;;;;;;2090645;28;20013;-82
2021/04/19 05:18:31;;;;;;;8.02;4.93;;;7.10;77.50;;;;;;2078196;28;20074;-83
2021/04/19 05:19:31;;;;;;;8.25;5.15;;;7.10;77.50;;;;;;2065422;28;20080;-83
2021/04/19 05:20:32;;;;;;;8.60;5.35;;;7.10;77.50;;;;;;2056724;28;20053;-84
2021/04/19 05:21:34;;;;;;;9.57;5.35;;;7.10;77.50;;;;;;2052786;28;20435;-84
2021/04/19 05:22:35;;;;;;;9.45;5.30;;;7.10;77.60;;;;;;2068117;28;20033;-84
2021/04/19 05:23:36;;;;;;;7.80;5.03;;;7.00;77.60;;;;;;2079948;28;20293;-83
2021/04/19 05:24:37;;;;;;;9.07;5.53;;;7.00;77.70;;;;;;2062945;28;20168;-83
2021/04/19 05:25:38;;;;;;;8.50;5.30;;;7.00;77.80;;;;;;2056048;28;20054;-83
2021/04/19 05:26:39;;;;;;;8.18;5.55;;;6.90;77.90;;;;;;2064552;28;20053;-83
2021/04/19 05:27:41;;;;;;;8.88;5.78;;;6.90;78.00;;;;;;2072898;28;20056;-82
2021/04/19 05:28:43;;;;;;;10.57;6.68;;;6.90;78.10;;;;;;2069145;28;20030;-82
2021/04/19 05:29:44;;;;;;;9.15;6.30;;;6.80;78.30;;;;;;2073404;28;20026;-82
2021/04/19 05:30:45;;;;;;;8.95;6.00;;;6.80;78.50;;;;;;2064387;28;20448;-82
2021/04/19 05:31:47;;;;;;;11.43;6.85;;;6.70;78.60;;;;;;2081147;28;20032;-81
2021/04/19 05:32:47;;;;;;;10.13;6.53;;;6.70;78.90;;;;;;2088071;28;20033;-82
2021/04/19 05:33:58;;;;;;;11.40;6.57;;;6.60;79.00;;;;;;2076003;28;20025;-82
2021/04/19 05:35:00;;;;;;;10.48;6.47;;;6.60;79.10;;;;;;2080121;28;20026;-82